Data for 01/26/2013

Time Sea-Level Adjusted Pressure Absolute Pressure Temperature Relative Humidity Dew Point   
(mb) (inHg) (mb) (inHg) (C) (F) (%) (C) (F)
00:05 1016 30 845 24.95 3.3 38 64 -2.8 27
00:10 1016 30 845 24.95 3.3 37.9 67 -2.3 27.9
00:15 1016 30 845 24.95 3.1 37.6 66 -2.7 27.1
00:20 1016 30 845 24.95 3.2 37.8 64 -3 26.5
00:25 1016 30 845 24.95 3.5 38.3 64 -2.8 27
00:30 1016 30 845 24.95 3.6 38.5 63 -2.8 27
00:35 1016 30 845 24.95 3.7 38.6 64 -2.6 27.3
00:40 1016 30 845 24.95 3.5 38.4 65 -2.4 27.8
00:45 1016 30 845 24.95 3.3 38 66 -2.3 27.9
00:50 1016 30 845 24.95 3 37.5 69 -2.1 28.2
00:55 1016 30 845 24.95 2.5 36.6 69 -2.5 27.5
01:00 1016 30 845 24.95 2.5 36.5 71 -2.3 27.9
01:05 1016 30 845 24.95 2.4 36.3 70 -2.5 27.4
01:10 1016 30 845 24.95 2.3 36.1 72 -2.2 28
01:15 1016 30 845 24.95 2.1 35.9 72 -2.4 27.7
01:20 1015 29.97 845 24.95 2.2 35.9 70 -2.8 27
01:25 1015 29.97 845 24.95 2.4 36.3 72 -2.1 28.2
01:30 1015 29.97 845 24.95 2.4 36.3 69 -2.7 27.1
01:35 1015 29.97 845 24.95 2.8 37 70 -2.1 28.2
01:40 1015 29.97 845 24.95 2.7 36.8 68 -2.7 27.1
01:45 1015 29.97 844 24.92 2.7 36.9 70 -2.2 28
01:50 1015 29.97 844 24.92 2.4 36.3 73 -1.9 28.6
01:55 1015 29.97 844 24.92 2.1 35.7 74 -2 28.3
02:00 1015 29.97 844 24.92 2 35.7 75 -1.9 28.6
02:05 1015 29.97 844 24.92 2.1 35.8 73 -2.2 28
02:10 1015 29.97 844 24.92 2.2 36 73 -2.1 28.3
02:15 1015 29.97 844 24.92 2.3 36.1 73 -2.1 28.3
02:20 1015 29.97 844 24.92 2.3 36.2 72 -2.1 28.2
02:25 1015 29.97 844 24.92 2.4 36.4 72 -2.1 28.3
02:30 1015 29.97 844 24.92 2.4 36.4 72 -2.1 28.2
02:35 1015 29.97 844 24.92 2.4 36.4 72 -2.1 28.3
02:40 1015 29.97 844 24.92 2.5 36.6 71 -2.2 28
02:45 1014 29.94 844 24.92 2.6 36.7 71 -2.1 28.2
02:50 1014 29.94 844 24.92 2.6 36.7 73 -1.7 28.9
02:55 1014 29.94 844 24.92 2.3 36.1 74 -1.9 28.5
03:00 1014 29.94 844 24.92 2.4 36.3 74 -1.8 28.7
03:05 1014 29.94 844 24.92 2.5 36.5 73 -1.8 28.8
03:10 1014 29.94 843 24.89 2.3 36.2 75 -1.7 29
03:15 1014 29.94 843 24.89 2.2 36 75 -1.7 29
03:20 1014 29.94 843 24.89 2.3 36.1 73 -2.1 28.3
03:25 1014 29.94 843 24.89 2.9 37.1 70 -2 28.3
03:30 1014 29.94 843 24.89 3.2 37.8 68 -2.1 28.2
03:35 1014 29.94 843 24.89 3.3 37.9 69 -1.9 28.6
03:40 1014 29.94 843 24.89 3.2 37.8 68 -2 28.3
03:45 1014 29.94 843 24.89 3.2 37.8 69 -1.9 28.5
03:50 1014 29.94 843 24.89 3.2 37.7 69 -2 28.4
03:55 1014 29.94 843 24.89 3.2 37.7 69 -2 28.3
04:00 1014 29.94 843 24.89 3.2 37.7 69 -2 28.4
04:05 1014 29.94 843 24.89 3.2 37.8 68 -2.1 28.2
04:10 1014 29.94 843 24.89 3.2 37.8 69 -2 28.4
04:15 1014 29.94 843 24.89 3.1 37.5 69 -2 28.3
04:20 1014 29.94 843 24.89 3.1 37.5 68 -2.3 27.8
04:25 1014 29.94 843 24.89 3.6 38.4 63 -2.7 27.1
04:30 1014 29.94 843 24.89 4.2 39.5 62 -2.4 27.6
04:35 1014 29.94 843 24.89 4.2 39.6 62 -2.4 27.6
04:40 1014 29.94 843 24.89 4.3 39.7 62 -2.3 27.8
04:45 1014 29.94 843 24.89 4.1 39.3 65 -2 28.4
04:50 1014 29.94 843 24.89 3.4 38.2 68 -2 28.5
04:55 1014 29.94 843 24.89 3.1 37.7 68 -2.1 28.2
05:00 1014 29.94 843 24.89 3.1 37.5 69 -2 28.4
05:05 1014 29.94 843 24.89 2.8 37.1 71 -2 28.4
05:10 1014 29.94 843 24.89 2.5 36.5 73 -1.9 28.6
05:15 1014 29.94 843 24.89 2.4 36.3 73 -2 28.3
05:20 1014 29.94 843 24.89 2.3 36.1 73 -2 28.3
05:25 1014 29.94 843 24.89 2.2 35.9 74 -2 28.4
05:30 1014 29.94 843 24.89 2.5 36.5 71 -2.3 27.8
05:35 1013 29.91 843 24.89 3 37.3 67 -2.5 27.5
05:40 1014 29.94 843 24.89 3.1 37.7 68 -2.2 28.1
05:45 1013 29.91 843 24.89 2.9 37.2 68 -2.5 27.5
05:50 1014 29.94 843 24.89 3.2 37.8 67 -2.4 27.7
05:55 1014 29.94 843 24.89 3.5 38.4 64 -2.6 27.4
06:00 1014 29.94 843 24.89 3.2 37.8 66 -2.4 27.6
06:05 1014 29.94 843 24.89 3.4 38 68 -2 28.5
06:10 1014 29.94 843 24.89 2.5 36.4 74 -1.7 28.9
06:15 1014 29.94 843 24.89 1.8 35.3 75 -2.1 28.3
06:20 1014 29.94 843 24.89 1.6 34.9 76 -2.1 28.1
06:25 1014 29.94 843 24.89 1.8 35.2 75 -2.2 28.1
06:30 1014 29.94 843 24.89 2.4 36.4 70 -2.5 27.5
06:35 1014 29.94 843 24.89 3 37.4 70 -1.9 28.6
06:40 1014 29.94 843 24.89 2.6 36.8 72 -2 28.4
06:45 1014 29.94 843 24.89 2.7 36.8 70 -2.2 28.1
06:50 1014 29.94 843 24.89 2.8 37 72 -1.9 28.6
06:55 1013 29.91 843 24.89 2.4 36.3 73 -1.9 28.5
07:00 1013 29.91 843 24.89 2.1 35.7 74 -2.1 28.2
07:05 1014 29.94 843 24.89 1.9 35.5 75 -2.1 28.2
07:10 1014 29.94 843 24.89 1.8 35.3 75 -2.1 28.3
07:15 1013 29.91 843 24.89 1.9 35.4 76 -1.9 28.5
07:20 1013 29.91 843 24.89 1.8 35.2 76 -2.1 28.2
07:25 1014 29.94 843 24.89 1.9 35.4 75 -2.1 28.3
07:30 1014 29.94 843 24.89 2.1 35.7 74 -2.1 28.3
07:35 1014 29.94 843 24.89 2.2 36 73 -2.1 28.2
07:40 1014 29.94 843 24.89 2.6 36.6 71 -2.2 28.1
07:45 1014 29.94 843 24.89 2.7 36.8 72 -1.8 28.8
07:50 1014 29.94 843 24.89 2.5 36.5 72 -2 28.5
07:55 1014 29.94 843 24.89 2.6 36.6 72 -2 28.5
08:00 1014 29.94 843 24.89 2.7 36.9 72 -1.9 28.6
08:05 1014 29.94 843 24.89 2.6 36.8 73 -1.7 29
08:10 1013 29.91 843 24.89 2.2 36 74 -1.9 28.6
08:15 1013 29.91 843 24.89 2.2 36 75 -1.8 28.7
08:20 1013 29.91 843 24.89 2 35.6 76 -1.8 28.7
08:25 1013 29.91 843 24.89 1.9 35.5 76 -1.8 28.7
08:30 1013 29.91 843 24.89 2.1 35.8 74 -2 28.3
08:35 1013 29.91 843 24.89 2.3 36.1 74 -1.9 28.6
08:40 1013 29.91 843 24.89 2.3 36.1 73 -2.1 28.2
08:45 1013 29.91 843 24.89 2.5 36.5 72 -2 28.4
08:50 1013 29.91 842 24.86 2.5 36.6 72 -2 28.5
08:55 1013 29.91 842 24.86 2.3 36.1 73 -2 28.4
09:00 1013 29.91 842 24.86 2.1 35.8 74 -2.1 28.1
09:05 1013 29.91 843 24.89 2 35.7 75 -2 28.4
09:10 1013 29.91 842 24.86 1.6 34.9 77 -2 28.3
09:15 1013 29.91 842 24.86 1.3 34.4 77 -2.2 28
09:20 1013 29.91 842 24.86 1.5 34.7 77 -2.1 28.3
09:25 1013 29.91 842 24.86 1.7 35 76 -2.1 28.2
09:30 1013 29.91 842 24.86 2 35.5 75 -2.1 28.3
09:35 1013 29.91 842 24.86 2 35.6 75 -1.9 28.5
09:40 1013 29.91 842 24.86 1.7 35 76 -2 28.3
09:45 1013 29.91 842 24.86 1.5 34.7 77 -2.1 28.3
09:50 1013 29.91 842 24.86 1.5 34.8 76 -2.2 28.1
09:55 1013 29.91 842 24.86 1.7 35.1 76 -2.1 28.2
10:00 1013 29.91 842 24.86 1.9 35.4 75 -2.1 28.2
10:05 1013 29.91 842 24.86 2 35.6 75 -1.9 28.5
10:10 1013 29.91 842 24.86 2 35.6 75 -2 28.4
10:15 1013 29.91 842 24.86 1.9 35.5 76 -1.8 28.7
10:20 1013 29.91 842 24.86 1.7 35.1 78 -1.8 28.7
10:25 1013 29.91 842 24.86 1.7 35 77 -1.9 28.5
10:30 1013 29.91 842 24.86 1.9 35.3 75 -2 28.4
10:35 1013 29.91 842 24.86 1.9 35.5 76 -1.9 28.5
10:40 1013 29.91 842 24.86 2 35.6 75 -2.1 28.3
10:45 1013 29.91 842 24.86 2 35.6 74 -2.1 28.2
10:50 1013 29.91 842 24.86 2 35.6 74 -2.2 28.1
10:55 1013 29.91 842 24.86 2.1 35.7 74 -2.1 28.1
11:00 1013 29.91 842 24.86 2.4 36.4 71 -2.4 27.7
11:05 1013 29.91 842 24.86 3.1 37.6 68 -2.3 27.9
11:10 1013 29.91 842 24.86 3.7 38.7 65 -2.2 28
11:15 1013 29.91 842 24.86 4.2 39.5 63 -2.2 28.1
11:20 1012 29.88 842 24.86 4.4 39.9 62 -2.3 27.9
11:25 1013 29.91 842 24.86 4.9 40.8 60 -2.2 28.1
11:30 1012 29.88 842 24.86 5.5 41.9 57 -2.4 27.8
11:35 1012 29.88 842 24.86 6 42.9 55 -2.3 27.8
11:40 1012 29.88 842 24.86 6.5 43.8 53 -2.4 27.6
11:45 1012 29.88 842 24.86 7 44.5 52 -2.2 28
11:50 1012 29.88 842 24.86 6.9 44.5 53 -1.9 28.5
11:55 1012 29.88 842 24.86 7.3 45.2 50 -2.4 27.7
12:00 1012 29.88 842 24.86 7.6 45.7 51 -1.9 28.6
12:05 1012 29.88 842 24.86 7.8 46 49 -2.3 27.9
12:10 1012 29.88 841 24.83 7.8 46 49 -2.2 28
12:15 1012 29.88 841 24.83 8.2 46.7 48 -2.2 28.1
12:20 1012 29.88 841 24.83 8.4 47.1 46 -2.5 27.4
12:25 1012 29.88 841 24.83 8.7 47.6 46 -2.3 27.8
12:30 1012 29.88 841 24.83 8.7 47.7 46 -2.1 28.2
12:35 1012 29.88 841 24.83 8.7 47.7 45 -2.4 27.6
12:40 1012 29.88 841 24.83 9.6 49.2 43 -2.5 27.5
12:45 1012 29.88 841 24.83 9.9 49.8 41 -2.7 27.1
12:50 1012 29.88 841 24.83 9.9 49.8 40 -3.2 26.3
12:55 1012 29.88 841 24.83 10.2 50.4 39 -3.2 26.2
13:00 1011 29.85 841 24.83 10.3 50.5 44 -1.4 29.5
13:05 1011 29.85 841 24.83 9.6 49.3 43 -2.3 27.8
13:10 1011 29.85 840 24.81 10.1 50.1 41 -2.7 27.2
13:15 1011 29.85 840 24.81 10.5 50.9 37 -3.4 25.9
13:20 1011 29.85 840 24.81 10.6 51 40 -2.4 27.6
13:25 1011 29.85 840 24.81 10.3 50.6 38 -3.4 26
13:30 1011 29.85 840 24.81 10.3 50.6 39 -3.1 26.4
13:35 1011 29.85 840 24.81 10.9 51.5 42 -1.6 29.1
13:40 1011 29.85 840 24.81 11.3 52.4 40 -1.7 28.9
13:45 1011 29.85 840 24.81 11.6 53 39 -1.8 28.8
13:50 1011 29.85 840 24.81 11.9 53.3 38 -2 28.3
13:55 1011 29.85 840 24.81 11.6 52.9 41 -1.1 30
14:00 1010 29.83 840 24.81 11.3 52.3 42 -1 30.3
14:05 1010 29.83 840 24.81 10.4 50.6 45 -1.1 30.1
14:10 1010 29.83 839 24.78 9.4 49 47 -1.2 29.9
14:15 1010 29.83 839 24.78 8.3 46.9 51 -1.2 29.9
14:20 1010 29.83 839 24.78 6.9 44.5 55 -1.5 29.2
14:25 1010 29.83 839 24.78 6.6 44 56 -1.6 29.1
14:30 1010 29.83 839 24.78 6.5 43.7 58 -1.1 30
14:35 1010 29.83 839 24.78 6.3 43.4 56 -1.8 28.8
14:40 1010 29.83 839 24.78 7 44.5 54 -1.8 28.8
14:45 1010 29.83 839 24.78 6.9 44.4 55 -1.5 29.4
14:50 1010 29.83 839 24.78 6.9 44.4 56 -1.3 29.7
14:55 1010 29.83 839 24.78 6.3 43.4 58 -1.4 29.4
15:00 1010 29.83 839 24.78 5.8 42.4 60 -1.2 29.8
15:05 1010 29.83 839 24.78 5.8 42.5 58 -1.8 28.8
15:10 1010 29.83 839 24.78 6.4 43.5 58 -1.3 29.6
15:15 1010 29.83 839 24.78 6.7 44.1 55 -1.6 29.1
15:20 1010 29.83 839 24.78 6.9 44.5 54 -1.7 28.9
15:25 1009 29.8 839 24.78 7.7 45.9 51 -1.8 28.7
15:30 1009 29.8 838 24.75 8.4 47.1 50 -1.5 29.3
15:35 1009 29.8 838 24.75 8.3 47 52 -1 30.1
15:40 1009 29.8 838 24.75 8.3 46.9 52 -1 30.2
15:45 1009 29.8 838 24.75 7.8 46 54 -1 30.2
15:50 1009 29.8 838 24.75 7.1 44.8 57 -0.9 30.4
15:55 1009 29.8 838 24.75 6.6 43.9 57 -1.2 29.9
16:00 1009 29.8 838 24.75 6.7 44.1 57 -1.3 29.7
16:05 1009 29.8 838 24.75 7 44.5 54 -1.7 28.9
16:10 1009 29.8 838 24.75 7.6 45.6 52 -1.7 28.9
16:15 1009 29.8 838 24.75 8 46.5 52 -1.3 29.7
16:20 1009 29.8 838 24.75 7.9 46.2 52 -1.4 29.4
16:25 1009 29.8 838 24.75 8.2 46.8 49 -1.8 28.7
16:30 1009 29.8 838 24.75 8.9 48.1 49 -1.2 29.9
16:35 1009 29.8 838 24.75 8.3 47 53 -0.8 30.6
16:40 1009 29.8 838 24.75 8.2 46.8 52 -1 30.2
16:45 1009 29.8 838 24.75 8.1 46.5 52 -1 30.1
16:50 1009 29.8 838 24.75 8.3 46.9 50 -1.4 29.4
16:55 1009 29.8 838 24.75 8.9 47.9 49 -1.2 29.9
17:00 1009 29.8 838 24.75 8.8 47.8 50 -1.1 30
17:05 1009 29.8 838 24.75 8.5 47.2 49 -1.6 29.2
17:10 1009 29.8 838 24.75 9.2 48.5 46 -1.8 28.8
17:15 1009 29.8 838 24.75 8.7 47.7 50 -1.2 29.8
17:20 1009 29.8 838 24.75 8.2 46.7 50 -1.5 29.3
17:25 1009 29.8 838 24.75 7.8 46.1 51 -1.5 29.3
17:30 1009 29.8 838 24.75 7.8 46.1 52 -1.3 29.6
17:35 1008 29.77 838 24.75 7.2 45 52 -1.9 28.6
17:40 1008 29.77 838 24.75 7.4 45.3 52 -1.8 28.8
17:45 1009 29.8 838 24.75 7.5 45.5 52 -1.6 29.1
17:50 1009 29.8 838 24.75 7.4 45.3 52 -1.8 28.8
17:55 1009 29.8 838 24.75 7.4 45.4 52 -1.7 28.9
18:00 1008 29.77 838 24.75 6.9 44.5 54 -1.7 29
18:05 1008 29.77 838 24.75 6.4 43.6 55 -1.9 28.6
18:10 1008 29.77 838 24.75 6.3 43.3 56 -1.9 28.7
18:15 1008 29.77 838 24.75 6.2 43.1 56 -2 28.4
18:20 1008 29.77 838 24.75 6.1 43 56 -2.1 28.3
18:25 1008 29.77 838 24.75 6 42.8 56 -2.1 28.3
18:30 1008 29.77 838 24.75 5.8 42.4 57 -2 28.3
18:35 1008 29.77 838 24.75 5.6 42.1 58 -2.1 28.3
18:40 1008 29.77 838 24.75 5.4 41.7 58 -2.3 27.8
18:45 1008 29.77 838 24.75 5.2 41.4 57 -2.5 27.5
18:50 1008 29.77 838 24.75 5.2 41.4 59 -2.2 28.1
18:55 1008 29.77 838 24.75 5.1 41.2 58 -2.4 27.6
19:00 1008 29.77 838 24.75 5.2 41.4 56 -2.8 27
19:05 1008 29.77 838 24.75 5.2 41.4 54 -3.2 26.2
19:10 1008 29.77 838 24.75 5.4 41.7 54 -3.3 26.1
19:15 1008 29.77 838 24.75 5.5 41.9 53 -3.4 25.8
19:20 1008 29.77 838 24.75 5.5 42 58 -2.1 28.2
19:25 1008 29.77 838 24.75 5.1 41.1 55 -3.3 26.1
19:30 1008 29.77 837 24.72 4.9 40.7 56 -3.3 26.1
19:35 1008 29.77 837 24.72 4.9 40.8 56 -3.2 26.3
19:40 1008 29.77 837 24.72 4.7 40.4 57 -3 26.5
19:45 1008 29.77 837 24.72 4.5 40.1 57 -3.4 25.9
19:50 1008 29.77 837 24.72 4.9 40.8 57 -2.9 26.8
19:55 1008 29.77 837 24.72 4.6 40.3 57 -3.1 26.5
20:00 1008 29.77 837 24.72 4.8 40.6 56 -3.3 26
20:05 1008 29.77 837 24.72 4.8 40.6 56 -3.2 26.3
20:10 1008 29.77 837 24.72 4.7 40.5 56 -3.2 26.2
20:15 1008 29.77 837 24.72 4.8 40.6 57 -3 26.6
20:20 1008 29.77 837 24.72 4.5 40 58 -3.2 26.3
20:25 1008 29.77 837 24.72 4.5 40.1 57 -3.2 26.2
20:30 1008 29.77 837 24.72 4.4 40 58 -3.2 26.3
20:35 1008 29.77 837 24.72 4.5 40.1 58 -3.1 26.4
20:40 1008 29.77 837 24.72 4.4 39.8 58 -3.2 26.3
20:45 1008 29.77 837 24.72 4.3 39.8 58 -3.2 26.3
20:50 1008 29.77 837 24.72 4.4 40 57 -3.3 26.1
20:55 1008 29.77 837 24.72 4.5 40.2 57 -3.3 26
21:00 1008 29.77 837 24.72 4.4 40 56 -3.5 25.7
21:05 1008 29.77 837 24.72 4.9 40.7 57 -3 26.7
21:10 1008 29.77 837 24.72 4.6 40.3 56 -3.4 26
21:15 1008 29.77 837 24.72 4.8 40.6 56 -3.3 26
21:20 1008 29.77 837 24.72 4.4 39.9 59 -2.8 26.9
21:25 1008 29.77 837 24.72 3.7 38.7 61 -3.2 26.2
21:30 1008 29.77 837 24.72 3.7 38.6 60 -3.4 25.8
21:35 1008 29.77 837 24.72 4.1 39.5 58 -3.4 25.8
21:40 1008 29.77 837 24.72 4.4 39.9 57 -3.4 26
21:45 1008 29.77 837 24.72 4.5 40 59 -2.8 26.9
21:50 1008 29.77 837 24.72 4 39.2 62 -2.7 27.1
21:55 1008 29.77 837 24.72 3.8 38.8 63 -2.5 27.4
22:00 1008 29.77 837 24.72 3.9 39 63 -2.4 27.7
22:05 1008 29.77 837 24.72 4 39.2 64 -2.2 28.1
22:10 1008 29.77 837 24.72 3.8 38.8 66 -2.1 28.3
22:15 1008 29.77 837 24.72 3.6 38.5 67 -2 28.5
22:20 1008 29.77 837 24.72 3.5 38.2 67 -2 28.3
22:25 1008 29.77 837 24.72 3.3 38 68 -2 28.4
22:30 1008 29.77 838 24.75 3.2 37.7 69 -1.9 28.6
22:35 1009 29.8 838 24.75 3.1 37.5 69 -2.1 28.2
22:40 1009 29.8 838 24.75 2.1 35.8 73 -2.3 27.9
22:45 1009 29.8 838 24.75 2.1 35.8 72 -2.4 27.6
22:50 1009 29.8 838 24.75 2.2 36 73 -2.2 28.1
22:55 1009 29.8 838 24.75 2.2 36 73 -2.2 28.1
23:00 1009 29.8 838 24.75 1.8 35.3 76 -1.9 28.6
23:05 1009 29.8 838 24.75 1.3 34.4 79 -2 28.5
23:10 1009 29.8 838 24.75 0.9 33.6 81 -2 28.5
23:15 1009 29.8 838 24.75 0.7 33.2 82 -2 28.4
23:20 1009 29.8 838 24.75 0.4 32.8 83 -2.2 28.1
23:25 1009 29.8 838 24.75 0.3 32.5 84 -2.2 28.1
23:30 1009 29.8 838 24.75 0.1 32.2 84 -2.3 27.9
23:35 1009 29.8 839 24.78 0 32.1 83 -2.4 27.6
23:40 1009 29.8 839 24.78 -0.1 31.8 82 -2.8 27
23:45 1009 29.8 839 24.78 -0.2 31.6 82 -3 26.6
23:50 1010 29.83 839 24.78 -0.2 31.6 80 -3.2 26.2
23:55 1010 29.83 839 24.78 -0 31.9 79 -3.2 26.2
24:00 1010 29.83 839 24.78 0 32.1 80 -3 26.6